Terminal Aerodrome Forecast
Issued by NWS

Home | Current Version | Previous Version | Text Only | Print | Product List | Glossary On
Versions: 1 2 3 4 5 6 7 8 9 10 11 12 13 14
000
FTUS44 KLIX 052331
TAFMCB
TAF
KMCB 052331Z 0600/0624 VRB05KT P6SM -SHRA SCT050 BKN120
      TEMPO 0600/0601 3SM -TSRA BKN025CB
     FM060300 VRB04KT P6SM SCT040 SCT120
     FM061200 17002KT 3SM BR SCT250
     FM061500 20007KT P6SM BKN025
     FM061800 19007KT P6SM SCT035 SCT250=

USA.gov is the U.S. government's official web portal to all federal, state and local government web resources and services.